Time;durP1;ratioP1;P1;durP2;ratioP2;P2;SDS_P1;SDS_P2;PMS_P1;PMS_P2;Temp;Humidity;BMP_temperature;BMP_pressure;BME280_temperature;BME280_humidity;BME280_pressure;Samples;Min_cycle;Max_cycle;Signal;HPM_P1;HPM_P2
2023/08/26 00:02:04;;;;;;;;;;;19.50;84.20;;;;;;4997378;28;19906;-86
2023/08/26 00:04:30;;;;;;;;;;;19.40;84.30;;;;;;4999127;28;20295;-87
2023/08/26 00:06:55;;;;;;;;;;;19.30;85.10;;;;;;5000140;28;19987;-87
2023/08/26 00:09:21;;;;;;;;;;;19.30;85.10;;;;;;4996310;28;19921;-86
2023/08/26 00:11:46;;;;;;;;;;;19.30;84.50;;;;;;5012258;28;20192;-87
2023/08/26 00:14:12;;;;;;;;;;;19.30;84.30;;;;;;4997647;28;19910;-87
2023/08/26 00:16:37;;;;;;;;;;;19.30;85.80;;;;;;4996179;28;19917;-87
2023/08/26 00:19:03;;;;;;;;;;;19.30;85.30;;;;;;4999452;28;19909;-87
2023/08/26 00:21:29;;;;;;;;;;;19.30;85.90;;;;;;5019649;28;19905;-87
2023/08/26 00:23:55;;;;;;;;;;;19.30;85.70;;;;;;5019823;28;19904;-87
2023/08/26 00:26:20;;;;;;;;;;;19.30;84.90;;;;;;5006945;28;20468;-86
2023/08/26 00:28:46;;;;;;;;;;;19.30;85.40;;;;;;4994935;28;19921;-86
2023/08/26 00:31:11;;;;;;;;;;;19.30;85.80;;;;;;4994322;28;19917;-86
2023/08/26 00:33:37;;;;;;;;;;;19.40;85.90;;;;;;4995680;28;19914;-86
2023/08/26 00:36:02;;;;;;;;;;;19.30;85.70;;;;;;4994503;28;20385;-86
2023/08/26 00:38:28;;;;;;;;;;;19.30;85.70;;;;;;4994755;28;19910;-86
2023/08/26 00:40:54;;;;;;;;;;;19.40;85.60;;;;;;4995234;28;19910;-87
2023/08/26 00:43:19;;;;;;;;;;;19.50;85.60;;;;;;4994584;28;19936;-86
2023/08/26 00:45:46;;;;;;;;;;;19.30;85.70;;;;;;4995362;28;20004;-86
2023/08/26 00:48:12;;;;;;;;;;;19.30;86.10;;;;;;4995353;28;19909;-87
2023/08/26 00:50:38;;;;;;;;;;;19.30;86.60;;;;;;4993624;28;19972;-86
2023/08/26 00:53:04;;;;;;;;;;;19.30;86.20;;;;;;4995424;28;20004;-86
2023/08/26 00:55:30;;;;;;;;;;;19.30;86.10;;;;;;4999610;28;19963;-85
2023/08/26 00:57:56;;;;;;;;;;;19.30;86.60;;;;;;5003235;28;20364;-87
2023/08/26 01:00:22;;;;;;;;;;;19.30;86.30;;;;;;5001033;28;19910;-87
2023/08/26 01:02:47;;;;;;;;;;;19.30;86.30;;;;;;5000803;28;20375;-86
2023/08/26 01:05:13;;;;;;;;;;;19.30;86.60;;;;;;5001138;28;19945;-87
2023/08/26 01:07:38;;;;;;;;;;;19.20;86.20;;;;;;5000882;28;19910;-86
2023/08/26 01:10:04;;;;;;;;;;;19.30;85.90;;;;;;5012411;28;19967;-87
2023/08/26 01:12:40;;;;;;;;;;;19.20;86.60;;;;;;5021884;28;19914;-87
2023/08/26 01:15:11;;;;;;;;;;;19.30;86.50;;;;;;5021472;28;19909;-87
2023/08/26 01:17:38;;;;;;;;;;;19.30;86.50;;;;;;5022484;28;20371;-86
2023/08/26 01:20:05;;;;;;;;;;;19.20;86.90;;;;;;5022204;28;19910;-87
2023/08/26 01:22:32;;;;;;;;;;;19.30;87.00;;;;;;5019944;28;19909;-86
2023/08/26 01:24:58;;;;;;;;;;;19.20;87.00;;;;;;5020835;28;19933;-87
2023/08/26 01:27:24;;;;;;;;;;;19.30;86.50;;;;;;5015127;28;19918;-87
2023/08/26 01:29:51;;;;;;;;;;;19.30;86.50;;;;;;5013128;28;19936;-87
2023/08/26 01:32:29;;;;;;;;;;;19.40;86.90;;;;;;5013824;28;20310;-86
2023/08/26 01:34:56;;;;;;;;;;;19.40;86.90;;;;;;5013325;28;19910;-87
2023/08/26 01:37:22;;;;;;;;;;;19.40;86.50;;;;;;5014629;28;19910;-87
2023/08/26 01:39:48;;;;;;;;;;;19.40;86.90;;;;;;5005719;28;19914;-87
2023/08/26 01:42:14;;;;;;;;;;;19.40;87.10;;;;;;4994872;28;19910;-87
2023/08/26 01:44:41;;;;;;;;;;;19.50;86.90;;;;;;4994529;28;19914;-87
2023/08/26 01:47:07;;;;;;;;;;;19.50;86.50;;;;;;4994474;28;19925;-87
2023/08/26 01:49:32;;;;;;;;;;;19.50;86.30;;;;;;4994568;28;19914;-87
2023/08/26 01:51:58;;;;;;;;;;;19.50;86.20;;;;;;5008805;28;19897;-87
2023/08/26 01:54:23;;;;;;;;;;;19.40;86.10;;;;;;5016246;28;19941;-87
2023/08/26 01:56:48;;;;;;;;;;;19.40;85.80;;;;;;5003035;28;19910;-87
2023/08/26 01:59:14;;;;;;;;;;;19.30;85.50;;;;;;5008547;28;19905;-87
2023/08/26 02:01:39;;;;;;;;;;;19.30;85.80;;;;;;5017130;28;19914;-87
2023/08/26 02:04:05;;;;;;;;;;;19.20;85.30;;;;;;5014738;28;19925;-87
2023/08/26 02:06:30;;;;;;;;;;;19.10;85.00;;;;;;4995279;28;19917;-86
2023/08/26 02:08:56;;;;;;;;;;;19.20;84.80;;;;;;4993191;28;20023;-86
2023/08/26 02:11:21;;;;;;;;;;;19.20;84.60;;;;;;4994423;28;19910;-86
2023/08/26 02:13:47;;;;;;;;;;;19.10;84.70;;;;;;4979717;28;19911;-87
2023/08/26 02:16:12;;;;;;;;;;;19.10;84.50;;;;;;4989523;28;19910;-86
2023/08/26 02:18:38;;;;;;;;;;;19.10;84.20;;;;;;4989437;28;19910;-86
2023/08/26 02:21:04;;;;;;;;;;;19.10;84.40;;;;;;4989585;28;19969;-87
2023/08/26 02:23:29;;;;;;;;;;;19.00;84.50;;;;;;4974984;28;20296;-87
2023/08/26 02:25:54;;;;;;;;;;;19.00;85.10;;;;;;4997240;23;19922;-94
2023/08/26 02:28:20;;;;;;;;;;;19.00;84.90;;;;;;5001424;28;19953;-91
2023/08/26 02:30:45;;;;;;;;;;;19.00;84.90;;;;;;4998456;28;19917;-92
2023/08/26 02:33:11;;;;;;;;;;;19.00;85.00;;;;;;4997722;28;20407;-91
2023/08/26 02:35:36;;;;;;;;;;;19.00;84.20;;;;;;4997730;28;19910;-91
2023/08/26 02:38:02;;;;;;;;;;;18.90;84.50;;;;;;4979273;28;19911;-92
2023/08/26 02:40:27;;;;;;;;;;;18.90;84.50;;;;;;4978513;28;19910;-91
2023/08/26 02:42:53;;;;;;;;;;;18.90;84.40;;;;;;4980647;28;19913;-90
2023/08/26 02:45:18;;;;;;;;;;;18.90;84.20;;;;;;4980520;28;19942;-91
2023/08/26 02:47:44;;;;;;;;;;;18.80;84.00;;;;;;4978975;28;20257;-91
2023/08/26 02:50:09;;;;;;;;;;;18.90;83.70;;;;;;4978610;28;19980;-90
2023/08/26 02:52:35;;;;;;;;;;;18.80;83.90;;;;;;4979567;28;19978;-90
2023/08/26 02:55:00;;;;;;;;;;;18.70;81.90;;;;;;4980584;28;20430;-91
2023/08/26 02:57:26;;;;;;;;;;;18.50;78.80;;;;;;4979499;28;19976;-91
2023/08/26 02:59:51;;;;;;;;;;;18.20;77.80;;;;;;4979667;28;19960;-90
2023/08/26 03:02:19;;;;;;;;;;;18.00;77.10;;;;;;4978510;28;19973;-91
2023/08/26 03:04:45;;;;;;;;;;;17.80;77.20;;;;;;4978517;28;19933;-91
2023/08/26 03:07:11;;;;;;;;;;;17.70;76.60;;;;;;4979000;28;19918;-91
2023/08/26 03:09:36;;;;;;;;;;;17.60;75.60;;;;;;4981277;28;19922;-92
2023/08/26 03:12:02;;;;;;;;;;;17.40;75.20;;;;;;4978818;28;19914;-91
2023/08/26 03:14:28;;;;;;;;;;;17.30;74.60;;;;;;4981123;28;19914;-91
2023/08/26 03:16:53;;;;;;;;;;;17.10;73.80;;;;;;4978679;28;19925;-91
2023/08/26 03:19:18;;;;;;;;;;;17.00;74.50;;;;;;4979018;28;19935;-90
2023/08/26 03:21:44;;;;;;;;;;;16.90;75.10;;;;;;4983825;28;19910;-90
2023/08/26 03:24:11;;;;;;;;;;;17.00;74.70;;;;;;4983380;28;20576;-90
2023/08/26 03:26:36;;;;;;;;;;;16.90;75.30;;;;;;4981961;28;19961;-92
2023/08/26 03:29:02;;;;;;;;;;;16.80;75.20;;;;;;4980675;28;19921;-89
2023/08/26 03:31:27;;;;;;;;;;;16.70;76.00;;;;;;4982316;28;19910;-91
2023/08/26 03:33:53;;;;;;;;;;;16.60;77.20;;;;;;4981979;28;19918;-91
2023/08/26 03:36:18;;;;;;;;;;;16.60;76.90;;;;;;4974470;28;19964;-91
2023/08/26 03:38:44;;;;;;;;;;;16.60;76.70;;;;;;4963093;29;20090;-90
2023/08/26 03:41:09;;;;;;;;;;;16.60;77.30;;;;;;4962113;29;19982;-90
2023/08/26 03:43:35;;;;;;;;;;;16.60;77.60;;;;;;4962335;29;19917;-91
2023/08/26 03:46:00;;;;;;;;;;;16.50;78.30;;;;;;4961767;28;19930;-90
2023/08/26 03:48:26;;;;;;;;;;;16.50;78.00;;;;;;4961804;28;19916;-90
2023/08/26 03:50:52;;;;;;;;;;;16.60;77.90;;;;;;4961059;29;19910;-90
2023/08/26 03:53:18;;;;;;;;;;;16.50;78.00;;;;;;4992660;28;19921;-93
2023/08/26 03:55:44;;;;;;;;;;;16.50;78.30;;;;;;4991967;28;19914;-91
2023/08/26 03:58:09;;;;;;;;;;;16.40;78.50;;;;;;4981157;28;19929;-90
2023/08/26 04:00:35;;;;;;;;;;;16.40;78.60;;;;;;4984631;28;19910;-90
2023/08/26 04:03:01;;;;;;;;;;;16.50;78.50;;;;;;4999404;28;19915;-90
2023/08/26 04:05:26;;;;;;;;;;;16.40;78.90;;;;;;4981851;28;20022;-90
2023/08/26 04:07:52;;;;;;;;;;;16.30;78.70;;;;;;4981926;28;19910;-90
2023/08/26 04:10:17;;;;;;;;;;;16.30;78.90;;;;;;4981842;28;19924;-90
2023/08/26 04:12:43;;;;;;;;;;;16.20;79.20;;;;;;4980708;28;19918;-90
2023/08/26 04:15:08;;;;;;;;;;;16.20;78.80;;;;;;4981921;28;19914;-90
2023/08/26 04:17:34;;;;;;;;;;;16.20;79.30;;;;;;4982684;28;19910;-90
2023/08/26 04:19:59;;;;;;;;;;;16.20;79.10;;;;;;4982977;28;19921;-90
2023/08/26 04:22:25;;;;;;;;;;;16.20;79.10;;;;;;4974374;28;19910;-90
2023/08/26 04:24:50;;;;;;;;;;;16.20;78.60;;;;;;4980104;28;19966;-89
2023/08/26 04:27:19;;;;;;;;;;;16.10;78.60;;;;;;4979887;28;19930;-91
2023/08/26 04:29:44;;;;;;;;;;;16.10;78.80;;;;;;4979435;28;19915;-90
2023/08/26 04:32:10;;;;;;;;;;;16.00;78.60;;;;;;4988718;28;19965;-89
2023/08/26 04:34:36;;;;;;;;;;;16.00;78.70;;;;;;4962015;28;19911;-90
2023/08/26 04:37:01;;;;;;;;;;;16.00;78.50;;;;;;4972196;28;19917;-91
2023/08/26 04:39:27;;;;;;;;;;;16.00;78.80;;;;;;4982305;28;19965;-90
2023/08/26 04:41:52;;;;;;;;;;;16.00;78.30;;;;;;4981855;28;19918;-90
2023/08/26 04:44:18;;;;;;;;;;;16.00;78.20;;;;;;4982965;28;19911;-90
2023/08/26 04:46:43;;;;;;;;;;;15.90;79.00;;;;;;4986057;28;19929;-91
2023/08/26 04:49:09;;;;;;;;;;;15.90;78.50;;;;;;4982505;28;19925;-90
2023/08/26 04:51:34;;;;;;;;;;;15.90;78.70;;;;;;4981501;28;19921;-90
2023/08/26 04:54:00;;;;;;;;;;;15.80;79.10;;;;;;4982400;28;19926;-89
2023/08/26 04:56:25;;;;;;;;;;;15.90;78.90;;;;;;4982948;28;19922;-90
2023/08/26 04:58:51;;;;;;;;;;;15.80;80.50;;;;;;4971519;28;19911;-90
2023/08/26 05:01:17;;;;;;;;;;;15.80;79.60;;;;;;4979221;28;19910;-90
2023/08/26 05:03:42;;;;;;;;;;;15.80;79.70;;;;;;4978290;28;19911;-92
2023/08/26 05:06:07;;;;;;;;;;;15.90;78.70;;;;;;4978561;28;19950;-90
2023/08/26 05:08:33;;;;;;;;;;;15.90;79.40;;;;;;4978831;28;19911;-91
2023/08/26 05:10:58;;;;;;;;;;;15.90;78.40;;;;;;4978342;28;19965;-91
2023/08/26 05:13:24;;;;;;;;;;;15.90;78.40;;;;;;4978295;28;19918;-90
2023/08/26 05:15:49;;;;;;;;;;;16.00;78.30;;;;;;4978456;28;19922;-90
2023/08/26 05:18:16;;;;;;;;;;;16.00;78.60;;;;;;4980603;28;19938;-90
2023/08/26 05:20:45;;;;;;;;;;;16.00;78.60;;;;;;4996569;28;19899;-93
2023/08/26 05:23:18;;;;;;;;;;;16.00;78.50;;;;;;4985876;28;19926;-90
2023/08/26 05:25:43;;;;;;;;;;;16.00;78.10;;;;;;4979412;28;20001;-90
2023/08/26 05:28:09;;;;;;;;;;;16.10;77.80;;;;;;4979434;28;19980;-91
2023/08/26 05:30:35;;;;;;;;;;;16.00;78.10;;;;;;4977997;28;19925;-91
2023/08/26 05:33:00;;;;;;;;;;;16.00;78.10;;;;;;4981257;28;19910;-90
2023/08/26 05:35:26;;;;;;;;;;;16.00;78.40;;;;;;4981618;28;19917;-90
2023/08/26 05:37:51;;;;;;;;;;;15.90;78.30;;;;;;4981117;28;19914;-90
2023/08/26 05:40:16;;;;;;;;;;;15.90;78.10;;;;;;4980273;28;19910;-90
2023/08/26 05:42:42;;;;;;;;;;;15.90;78.10;;;;;;4980364;28;19910;-91
2023/08/26 05:45:08;;;;;;;;;;;15.90;78.20;;;;;;4980512;28;20273;-91
2023/08/26 05:47:34;;;;;;;;;;;16.00;77.60;;;;;;4979873;28;19917;-90
2023/08/26 05:49:59;;;;;;;;;;;16.10;77.70;;;;;;4979670;28;20053;-91
2023/08/26 05:52:25;;;;;;;;;;;16.10;77.20;;;;;;4980143;28;19956;-90
2023/08/26 05:54:51;;;;;;;;;;;16.00;77.30;;;;;;4980254;28;19910;-91
2023/08/26 05:57:16;;;;;;;;;;;16.10;77.10;;;;;;4981085;28;19924;-91
2023/08/26 05:59:42;;;;;;;;;;;16.10;77.40;;;;;;4979190;28;19918;-91
2023/08/26 06:02:08;;;;;;;;;;;16.10;77.00;;;;;;4979352;28;19914;-91
2023/08/26 06:04:33;;;;;;;;;;;16.20;76.80;;;;;;4979139;28;19981;-91
2023/08/26 06:06:59;;;;;;;;;;;16.30;76.60;;;;;;4978932;28;20362;-90
2023/08/26 06:09:24;;;;;;;;;;;16.20;76.80;;;;;;4979350;28;19915;-90
2023/08/26 06:11:50;;;;;;;;;;;16.20;76.40;;;;;;4985064;28;19914;-91
2023/08/26 06:14:15;;;;;;;;;;;16.20;76.60;;;;;;4981776;28;19917;-91
2023/08/26 06:16:41;;;;;;;;;;;16.30;76.60;;;;;;4979549;28;19911;-90
2023/08/26 06:19:06;;;;;;;;;;;16.30;77.00;;;;;;4980244;28;20365;-91
2023/08/26 06:21:32;;;;;;;;;;;16.30;76.50;;;;;;4980901;28;19934;-92
2023/08/26 06:23:57;;;;;;;;;;;16.40;76.50;;;;;;4980488;28;19910;-91
2023/08/26 06:26:23;;;;;;;;;;;16.40;76.70;;;;;;4979542;28;19915;-90
2023/08/26 06:28:48;;;;;;;;;;;16.50;76.00;;;;;;4978784;28;19914;-91
2023/08/26 06:31:14;;;;;;;;;;;16.60;75.90;;;;;;4978765;28;20440;-91
2023/08/26 06:33:39;;;;;;;;;;;16.60;75.40;;;;;;4982401;28;19941;-91
2023/08/26 06:36:05;;;;;;;;;;;16.60;75.60;;;;;;4980247;28;19910;-91
2023/08/26 06:38:31;;;;;;;;;;;16.60;75.90;;;;;;4979430;28;19957;-91
2023/08/26 06:40:56;;;;;;;;;;;16.60;75.90;;;;;;4962290;28;19926;-91
2023/08/26 06:43:22;;;;;;;;;;;16.70;75.90;;;;;;4958836;28;20013;-91
2023/08/26 06:45:48;;;;;;;;;;;16.70;75.20;;;;;;4962647;28;19945;-92
2023/08/26 06:48:14;;;;;;;;;;;16.80;75.60;;;;;;4978270;28;19982;-92
2023/08/26 06:50:40;;;;;;;;;;;16.90;75.00;;;;;;4976707;28;19946;-91
2023/08/26 06:53:06;;;;;;;;;;;16.90;74.60;;;;;;4975673;28;19911;-91
2023/08/26 06:55:31;;;;;;;;;;;17.00;74.20;;;;;;4978219;28;19917;-91
2023/08/26 06:57:57;;;;;;;;;;;17.10;74.60;;;;;;4980182;28;19952;-91
2023/08/26 07:00:22;;;;;;;;;;;17.10;74.80;;;;;;4982490;28;19911;-91
2023/08/26 07:02:47;;;;;;;;;;;17.00;73.50;;;;;;4980038;28;20282;-91
2023/08/26 07:05:13;;;;;;;;;;;17.00;73.40;;;;;;4978241;28;19933;-91
2023/08/26 07:07:39;;;;;;;;;;;17.00;73.60;;;;;;4978102;28;19918;-91
2023/08/26 07:10:05;;;;;;;;;;;16.90;74.20;;;;;;4977604;28;19949;-92
2023/08/26 07:12:30;;;;;;;;;;;17.00;73.70;;;;;;4962585;28;19914;-91
2023/08/26 07:14:56;;;;;;;;;;;17.00;73.30;;;;;;4962978;29;19918;-90
2023/08/26 07:17:21;;;;;;;;;;;17.10;73.30;;;;;;4977371;28;19917;-91
2023/08/26 07:19:47;;;;;;;;;;;17.10;72.90;;;;;;4978666;28;20400;-92
2023/08/26 07:22:12;;;;;;;;;;;17.10;72.90;;;;;;4978385;28;19910;-91
2023/08/26 07:24:38;;;;;;;;;;;17.10;72.50;;;;;;4978987;28;19911;-91
2023/08/26 07:27:03;;;;;;;;;;;17.10;72.60;;;;;;4978506;28;19930;-91
2023/08/26 07:29:33;;;;;;;;;;;17.30;73.10;;;;;;4977627;28;19915;-92
2023/08/26 07:31:58;;;;;;;;;;;17.30;72.10;;;;;;4977637;28;19942;-91
2023/08/26 07:34:24;;;;;;;;;;;17.40;72.30;;;;;;4978539;28;19918;-90
2023/08/26 07:36:49;;;;;;;;;;;17.40;71.90;;;;;;4978223;28;19914;-91
2023/08/26 07:39:15;;;;;;;;;;;17.50;72.20;;;;;;4978187;28;19914;-91
2023/08/26 07:41:40;;;;;;;;;;;17.60;71.90;;;;;;4977473;28;19991;-90
2023/08/26 07:44:06;;;;;;;;;;;17.60;72.50;;;;;;4981739;28;19918;-91
2023/08/26 07:46:31;;;;;;;;;;;17.60;71.40;;;;;;4981505;28;20357;-91
2023/08/26 07:48:57;;;;;;;;;;;17.50;72.30;;;;;;4977940;28;19985;-90
2023/08/26 07:51:22;;;;;;;;;;;17.60;72.20;;;;;;4978073;28;20307;-91
2023/08/26 07:53:48;;;;;;;;;;;17.60;72.60;;;;;;4977833;28;19911;-93
2023/08/26 07:56:13;;;;;;;;;;;17.70;72.50;;;;;;4980086;28;19914;-93
2023/08/26 07:58:39;;;;;;;;;;;17.70;71.40;;;;;;4980063;28;19910;-90
2023/08/26 08:01:05;;;;;;;;;;;17.70;71.40;;;;;;4979152;28;19910;-91
2023/08/26 08:03:30;;;;;;;;;;;17.70;71.50;;;;;;4979463;28;19921;-91
2023/08/26 08:05:56;;;;;;;;;;;17.80;70.80;;;;;;4979416;28;19917;-90
2023/08/26 08:08:22;;;;;;;;;;;17.80;70.60;;;;;;4979607;28;19910;-90
2023/08/26 08:10:49;;;;;;;;;;;17.80;70.50;;;;;;4979771;28;19914;-91
2023/08/26 08:13:15;;;;;;;;;;;17.90;70.70;;;;;;4978995;28;20339;-91
2023/08/26 08:15:41;;;;;;;;;;;17.90;70.60;;;;;;4979756;28;19910;-91
2023/08/26 08:18:06;;;;;;;;;;;18.10;70.10;;;;;;4979436;28;20772;-92
2023/08/26 08:20:32;;;;;;;;;;;18.20;70.70;;;;;;4979095;28;19934;-92
2023/08/26 08:22:57;;;;;;;;;;;18.50;69.00;;;;;;4980078;28;20392;-90
2023/08/26 08:25:22;;;;;;;;;;;18.50;69.20;;;;;;4978838;28;20291;-91
2023/08/26 08:27:48;;;;;;;;;;;18.50;67.50;;;;;;4979040;28;19924;-92
2023/08/26 08:30:14;;;;;;;;;;;18.40;67.70;;;;;;4979755;28;20328;-91
2023/08/26 08:32:39;;;;;;;;;;;18.50;67.50;;;;;;4980085;28;20135;-91
2023/08/26 08:35:05;;;;;;;;;;;18.50;67.40;;;;;;4980003;28;20265;-91
2023/08/26 08:37:31;;;;;;;;;;;18.50;67.20;;;;;;4981808;28;19916;-91
2023/08/26 08:39:56;;;;;;;;;;;18.50;67.00;;;;;;4983557;28;19910;-90
2023/08/26 08:42:22;;;;;;;;;;;18.60;66.90;;;;;;4980829;28;19910;-91
2023/08/26 08:44:47;;;;;;;;;;;18.60;67.20;;;;;;4981131;28;19969;-90
2023/08/26 08:47:13;;;;;;;;;;;18.50;67.80;;;;;;4980047;28;20033;-91
2023/08/26 08:49:41;;;;;;;;;;;18.50;68.20;;;;;;4979963;28;19921;-91
2023/08/26 08:52:07;;;;;;;;;;;18.60;68.20;;;;;;4980191;28;19910;-91
2023/08/26 08:54:33;;;;;;;;;;;18.60;66.10;;;;;;4975948;28;19910;-90
2023/08/26 08:56:59;;;;;;;;;;;18.70;66.90;;;;;;4958979;28;19917;-91
2023/08/26 08:59:25;;;;;;;;;;;18.70;66.10;;;;;;4960969;29;20423;-90
2023/08/26 09:01:54;;;;;;;;;;;18.80;66.50;;;;;;4958909;28;19953;-91
2023/08/26 09:04:19;;;;;;;;;;;19.00;66.60;;;;;;4960303;28;19911;-91
2023/08/26 09:06:44;;;;;;;;;;;18.80;65.10;;;;;;4960231;29;19910;-90
2023/08/26 09:09:10;;;;;;;;;;;18.70;66.30;;;;;;4960347;28;19923;-91
2023/08/26 09:11:39;;;;;;;;;;;18.80;65.30;;;;;;4960056;28;20001;-91
2023/08/26 09:14:05;;;;;;;;;;;18.70;65.10;;;;;;4959591;29;19911;-91
2023/08/26 09:16:37;;;;;;;;;;;18.60;66.40;;;;;;4961599;28;19978;-91
2023/08/26 09:19:04;;;;;;;;;;;18.60;66.00;;;;;;4960385;28;19910;-90
2023/08/26 09:21:30;;;;;;;;;;;18.80;65.90;;;;;;4960772;28;19997;-91
2023/08/26 09:23:56;;;;;;;;;;;18.60;65.60;;;;;;4960254;28;20411;-91
2023/08/26 09:26:28;;;;;;;;;;;18.70;66.00;;;;;;4979917;28;19921;-90
2023/08/26 09:28:53;;;;;;;;;;;18.80;65.90;;;;;;4978968;28;20049;-90
2023/08/26 09:31:19;;;;;;;;;;;19.10;64.80;;;;;;4978744;28;19957;-90
2023/08/26 09:33:50;;;;;;;;;;;19.30;64.70;;;;;;4979447;28;19933;-89
2023/08/26 09:36:15;;;;;;;;;;;19.40;63.80;;;;;;4980579;28;19910;-91
2023/08/26 09:38:47;;;;;;;;;;;19.40;63.60;;;;;;4980029;28;20399;-90
2023/08/26 09:41:19;;;;;;;;;;;19.40;63.80;;;;;;4979486;28;19917;-91
2023/08/26 09:43:45;;;;;;;;;;;19.50;64.70;;;;;;4979248;28;20001;-90
2023/08/26 09:46:20;;;;;;;;;;;19.50;65.10;;;;;;4979029;28;19922;-91
2023/08/26 09:48:49;;;;;;;;;;;19.60;64.10;;;;;;4980396;28;19977;-90
2023/08/26 09:51:25;;;;;;;;;;;19.50;63.70;;;;;;4980816;28;20004;-91
2023/08/26 09:53:51;;;;;;;;;;;19.40;63.80;;;;;;4992410;28;19914;-90
2023/08/26 09:56:22;;;;;;;;;;;19.20;64.30;;;;;;4989944;28;19910;-90
2023/08/26 09:58:48;;;;;;;;;;;19.30;64.30;;;;;;4997612;28;19914;-90
2023/08/26 10:01:19;;;;;;;;;;;19.40;64.10;;;;;;4984730;28;20261;-92
2023/08/26 10:03:46;;;;;;;;;;;19.50;63.20;;;;;;4982520;28;19910;-91
2023/08/26 10:06:12;;;;;;;;;;;19.60;63.00;;;;;;4978786;28;19914;-91
2023/08/26 10:08:38;;;;;;;;;;;19.70;62.80;;;;;;4979324;28;20287;-91
2023/08/26 10:11:06;;;;;;;;;;;20.00;62.40;;;;;;4978581;28;19910;-91
2023/08/26 10:13:34;;;;;;;;;;;20.10;62.30;;;;;;4969458;28;19917;-93
2023/08/26 10:16:01;;;;;;;;;;;20.10;61.60;;;;;;4976422;28;19977;-92
2023/08/26 10:18:34;;;;;;;;;;;20.10;61.40;;;;;;4976673;28;19946;-92
2023/08/26 10:21:03;;;;;;;;;;;20.20;61.70;;;;;;4976639;28;20360;-91
2023/08/26 10:23:32;;;;;;;;;;;20.20;61.10;;;;;;4976224;28;19980;-92
2023/08/26 10:25:58;;;;;;;;;;;20.20;61.50;;;;;;4975760;28;19917;-91
2023/08/26 10:28:24;;;;;;;;;;;20.10;61.90;;;;;;4977268;28;19911;-92
2023/08/26 10:30:50;;;;;;;;;;;20.20;61.50;;;;;;4977831;28;20017;-91
2023/08/26 10:33:18;;;;;;;;;;;20.20;61.00;;;;;;4976654;28;19911;-91
2023/08/26 10:35:56;;;;;;;;;;;20.00;61.30;;;;;;4976685;28;19911;-91
2023/08/26 10:38:21;;;;;;;;;;;20.00;62.10;;;;;;4976915;28;19911;-91
2023/08/26 10:40:47;;;;;;;;;;;20.00;61.20;;;;;;4978109;28;19934;-91
2023/08/26 10:43:12;;;;;;;;;;;20.10;60.30;;;;;;4976588;28;19934;-93
2023/08/26 10:45:48;;;;;;;;;;;20.30;60.30;;;;;;4977227;28;19942;-91
2023/08/26 10:48:14;;;;;;;;;;;20.50;59.70;;;;;;4978190;28;19954;-91
2023/08/26 10:50:40;;;;;;;;;;;20.50;61.40;;;;;;4959674;28;19914;-92
2023/08/26 10:53:13;;;;;;;;;;;20.30;60.90;;;;;;4978349;28;19910;-91
2023/08/26 10:55:38;;;;;;;;;;;20.40;61.50;;;;;;4980350;28;19914;-91
2023/08/26 10:58:16;;;;;;;;;;;20.40;59.70;;;;;;4977650;28;20531;-91
2023/08/26 11:00:46;;;;;;;;;;;20.50;59.80;;;;;;4980758;28;19910;-91
2023/08/26 11:03:12;;;;;;;;;;;20.70;60.00;;;;;;4978404;28;19917;-92
2023/08/26 11:05:39;;;;;;;;;;;20.70;58.80;;;;;;4978973;28;20432;-91
2023/08/26 11:08:05;;;;;;;;;;;20.90;60.40;;;;;;4977578;28;20127;-92
2023/08/26 11:10:32;;;;;;;;;;;20.90;59.80;;;;;;4977492;28;19918;-91
2023/08/26 11:12:57;;;;;;;;;;;20.80;58.40;;;;;;4978575;28;19911;-92
2023/08/26 11:15:23;;;;;;;;;;;21.00;58.10;;;;;;4979734;28;20398;-92
2023/08/26 11:17:49;;;;;;;;;;;20.90;58.20;;;;;;4991193;28;20197;-93
2023/08/26 11:20:16;;;;;;;;;;;20.90;58.10;;;;;;4972369;28;19914;-91
2023/08/26 11:22:42;;;;;;;;;;;20.80;59.20;;;;;;4959607;28;19910;-92
2023/08/26 11:25:08;;;;;;;;;;;20.80;59.00;;;;;;4974280;28;19917;-91
2023/08/26 11:27:33;;;;;;;;;;;20.80;56.00;;;;;;4977863;28;19941;-90
2023/08/26 11:29:59;;;;;;;;;;;20.80;56.80;;;;;;4978030;28;19962;-90
2023/08/26 11:32:28;;;;;;;;;;;20.70;57.50;;;;;;4984093;28;19910;-91
2023/08/26 11:34:53;;;;;;;;;;;20.70;56.10;;;;;;4977611;28;19910;-92
2023/08/26 11:37:19;;;;;;;;;;;20.60;57.30;;;;;;4977664;28;20467;-91
2023/08/26 11:39:44;;;;;;;;;;;20.50;58.10;;;;;;4978277;28;19989;-91
2023/08/26 11:42:13;;;;;;;;;;;20.70;57.00;;;;;;4980550;28;19914;-91
2023/08/26 11:44:39;;;;;;;;;;;20.90;56.10;;;;;;4982254;28;20291;-91
2023/08/26 11:47:07;;;;;;;;;;;21.10;56.20;;;;;;4981679;28;19911;-92
2023/08/26 11:49:32;;;;;;;;;;;21.30;55.80;;;;;;4982755;28;19945;-92
2023/08/26 11:51:59;;;;;;;;;;;21.40;54.70;;;;;;4984953;28;19910;-91
2023/08/26 11:54:25;;;;;;;;;;;21.40;55.10;;;;;;4986188;28;19910;-92
2023/08/26 11:56:51;;;;;;;;;;;21.50;54.20;;;;;;4979787;28;20446;-91
2023/08/26 11:59:20;;;;;;;;;;;21.60;54.30;;;;;;4980882;28;19910;-92
2023/08/26 12:01:45;;;;;;;;;;;21.60;54.60;;;;;;4981042;28;19917;-91
2023/08/26 12:04:15;;;;;;;;;;;21.70;53.90;;;;;;4984148;28;19910;-91
2023/08/26 12:06:44;;;;;;;;;;;21.70;54.40;;;;;;4980539;28;19914;-91
2023/08/26 12:09:13;;;;;;;;;;;21.60;53.40;;;;;;4979822;28;19914;-91
2023/08/26 12:11:38;;;;;;;;;;;21.30;54.80;;;;;;4979504;28;19910;-91
2023/08/26 12:14:15;;;;;;;;;;;21.30;54.60;;;;;;4980588;28;19917;-91
2023/08/26 12:16:41;;;;;;;;;;;21.50;54.30;;;;;;4979341;28;19938;-92
2023/08/26 12:19:14;;;;;;;;;;;21.60;54.00;;;;;;4980904;28;19910;-91
2023/08/26 12:21:39;;;;;;;;;;;21.70;53.50;;;;;;4980510;28;20444;-91
2023/08/26 12:24:05;;;;;;;;;;;21.80;53.40;;;;;;4980469;28;19914;-91
2023/08/26 12:26:30;;;;;;;;;;;21.70;54.30;;;;;;4980372;28;20391;-91
2023/08/26 12:28:56;;;;;;;;;;;21.90;55.00;;;;;;4980407;28;19910;-91
2023/08/26 12:31:21;;;;;;;;;;;22.10;53.70;;;;;;4980221;28;19973;-92
2023/08/26 12:33:48;;;;;;;;;;;22.10;52.80;;;;;;4979946;28;19910;-91
2023/08/26 12:36:13;;;;;;;;;;;22.00;52.80;;;;;;4981192;28;19978;-91
2023/08/26 12:38:39;;;;;;;;;;;22.00;53.50;;;;;;4980092;28;19914;-91
2023/08/26 12:41:05;;;;;;;;;;;22.10;53.10;;;;;;4989160;28;20368;-91
2023/08/26 12:43:30;;;;;;;;;;;22.10;52.10;;;;;;4980379;28;19914;-92
2023/08/26 12:45:56;;;;;;;;;;;22.10;53.70;;;;;;4979072;28;20733;-91
2023/08/26 12:48:22;;;;;;;;;;;22.10;53.10;;;;;;4979661;28;19911;-91
2023/08/26 12:50:47;;;;;;;;;;;22.10;53.40;;;;;;4980874;28;19914;-92
2023/08/26 12:53:13;;;;;;;;;;;22.10;53.00;;;;;;4992623;28;19910;-88
2023/08/26 12:55:38;;;;;;;;;;;22.20;52.30;;;;;;4984554;28;19942;-91
2023/08/26 12:58:05;;;;;;;;;;;22.20;52.70;;;;;;4980104;28;19917;-91
2023/08/26 13:00:31;;;;;;;;;;;22.10;53.20;;;;;;4979943;28;19970;-92
2023/08/26 13:02:57;;;;;;;;;;;22.20;53.20;;;;;;4979279;28;20356;-91
2023/08/26 13:05:23;;;;;;;;;;;22.30;52.80;;;;;;4979940;28;19917;-92
2023/08/26 13:07:48;;;;;;;;;;;22.50;53.00;;;;;;4978967;28;19914;-91
2023/08/26 13:10:13;;;;;;;;;;;22.50;51.10;;;;;;4979433;28;19914;-91
2023/08/26 13:12:42;;;;;;;;;;;22.50;51.90;;;;;;4982040;28;19964;-91
2023/08/26 13:15:09;;;;;;;;;;;22.60;51.70;;;;;;4997296;28;19945;-93
2023/08/26 13:17:34;;;;;;;;;;;22.50;51.70;;;;;;4982543;28;19957;-91
2023/08/26 13:20:00;;;;;;;;;;;22.60;51.60;;;;;;4979896;28;19914;-91
2023/08/26 13:22:26;;;;;;;;;;;22.60;51.30;;;;;;4966087;28;19961;-92
2023/08/26 13:24:51;;;;;;;;;;;22.60;51.30;;;;;;4976873;28;19934;-91
2023/08/26 13:27:17;;;;;;;;;;;22.60;53.50;;;;;;4960947;29;19922;-92
2023/08/26 13:29:42;;;;;;;;;;;22.70;52.50;;;;;;4979125;28;19918;-91
2023/08/26 13:32:08;;;;;;;;;;;22.80;51.80;;;;;;4977159;28;19911;-91
2023/08/26 13:34:33;;;;;;;;;;;22.80;52.00;;;;;;4977476;28;20332;-92
2023/08/26 13:36:59;;;;;;;;;;;22.80;51.60;;;;;;4977488;28;19914;-91
2023/08/26 13:39:24;;;;;;;;;;;22.80;51.70;;;;;;4978120;28;19966;-91
2023/08/26 13:41:50;;;;;;;;;;;22.80;52.70;;;;;;4978002;28;19974;-91
2023/08/26 13:44:15;;;;;;;;;;;22.70;52.80;;;;;;4961064;29;20459;-91
2023/08/26 13:46:42;;;;;;;;;;;22.70;52.40;;;;;;4976707;28;19917;-91
2023/08/26 13:49:07;;;;;;;;;;;22.50;53.00;;;;;;4976362;28;20427;-91
2023/08/26 13:51:33;;;;;;;;;;;22.50;53.50;;;;;;4975950;28;19914;-92
2023/08/26 13:53:59;;;;;;;;;;;22.50;52.20;;;;;;4975579;28;20392;-91
2023/08/26 13:56:24;;;;;;;;;;;22.40;53.00;;;;;;4975663;28;20002;-91
2023/08/26 13:58:50;;;;;;;;;;;22.60;52.10;;;;;;4975506;28;19970;-92
2023/08/26 14:01:15;;;;;;;;;;;22.70;52.50;;;;;;4989684;28;19949;-92
2023/08/26 14:03:41;;;;;;;;;;;22.80;51.60;;;;;;4989983;28;19922;-91
2023/08/26 14:06:07;;;;;;;;;;;23.00;51.70;;;;;;4975623;28;19910;-91
2023/08/26 14:08:32;;;;;;;;;;;23.00;51.20;;;;;;4976068;28;19949;-92
2023/08/26 14:10:58;;;;;;;;;;;23.00;50.60;;;;;;4975849;28;19926;-91